Terminal Aerodrome Forecast
Issued by NWS Grand Forks, ND

Home | Current Version | Previous Version | Text Only | Print | Product List | Glossary Off
Versions: 1 2 3 4 5 6 7 8 9 10 11 12 13

575
FTUS43 KFGF 191132
TAFGFK
TAF
KGFK 191132Z 1912/2012 34010KT P6SM SCT200
     FM191800 02015G23KT P6SM SCT045
     FM200100 36007KT P6SM FEW250=

USA.gov is the U.S. government's official web portal to all federal, state and local government web resources and services.